EDT,Max TemperatureF,Mean TemperatureF,Min TemperatureF,Max Dew PointF,MeanDew PointF,Min DewpointF,Max Humidity, Mean Humidity, Min Humidity, Max Sea Level PressureIn, Mean Sea Level PressureIn, Min Sea Level PressureIn, Max VisibilityMiles, Mean VisibilityMiles, Min VisibilityMiles, Max Wind SpeedMPH, Mean Wind SpeedMPH, Max Gust SpeedMPH,PrecipitationIn, CloudCover, Events, WindDirDegrees
2013-7-1,82,74,65,66,64,61,93,74,54,29.91,29.85,29.80,10,9,7,10,4,16,0.02,5,Rain-Thunderstorm,352
2013-7-2,82,72,62,66,63,62,100,77,54,30.02,29.95,29.90,10,8,2,13,3,17,0.01,5,,178
2013-7-3,83,74,65,70,65,61,93,70,47,30.11,30.07,30.02,10,10,7,15,3,20,0.04,1,,169
2013-7-4,74,71,67,70,68,64,97,91,84,30.15,30.12,30.07,10,7,2,8,2,12,0.80,6,Rain,155
2013-7-5,79,73,67,70,67,64,100,86,71,30.14,30.11,30.08,10,9,2,10,3,14,0.06,6,Rain,141
2013-7-6,74,71,67,68,66,64,100,87,73,30.13,30.11,30.08,10,8,1,8,3,10,0.77,7,Rain,204
2013-7-7,85,76,67,66,65,63,100,76,51,30.14,30.09,30.04,10,10,8,10,2,13,0.00,4,,220
2013-7-8,88,78,68,71,68,66,90,70,50,30.15,30.11,30.05,10,10,6,12,3,16,0.00,0,,208
2013-7-9,90,83,75,72,71,68,87,70,53,30.10,30.06,29.99,10,10,8,15,5,20,0.02,2,Rain,218
2013-7-10,90,80,70,78,71,68,87,76,64,30.01,29.95,29.88,10,8,0,36,5,47,0.87,2,Fog-Rain-Thunderstorm,222
2013-7-11,84,77,69,70,66,59,97,72,46,30.00,29.97,29.94,10,9,2,14,6,20,0.00,4,,2
2013-7-12,83,73,62,60,57,54,84,62,39,30.09,30.04,30.01,10,10,10,15,5,22,0.00,1,,30
2013-7-13,83,74,65,65,62,58,87,69,51,30.10,30.06,30.03,10,10,10,14,5,18,T,1,Thunderstorm,63
2013-7-14,91,80,68,75,70,64,94,71,47,30.19,30.14,30.09,10,9,0,18,4,28,0.81,2,Fog-Rain-Thunderstorm,105
2013-7-15,91,82,72,73,69,66,88,68,47,30.30,30.24,30.19,10,10,10,12,2,14,0.00,1,,129
2013-7-16,93,83,72,72,70,67,87,66,44,30.33,30.28,30.25,10,10,10,8,1,14,0.00,1,,315
2013-7-17,94,85,75,75,72,70,94,72,49,30.32,30.25,30.18,10,10,10,10,3,15,T,0,,334
2013-7-18,93,85,76,77,73,70,94,72,49,30.20,30.13,30.04,10,8,5,15,2,21,0.07,2,Rain-Thunderstorm,215
2013-7-19,91,83,75,74,71,68,87,69,50,30.05,30.00,29.92,10,10,8,16,5,22,0.00,1,,235
2013-7-20,91,83,75,73,71,68,87,70,52,29.95,29.91,29.87,10,10,10,15,5,21,T,1,Rain,238
2013-7-21,89,81,72,72,69,67,87,69,50,29.97,29.92,29.86,10,8,1,15,3,20,0.63,4,Rain-Thunderstorm,284
2013-7-22,81,76,71,73,71,70,100,87,74,29.92,29.85,29.78,10,6,0,14,4,18,1.75,7,Fog-Rain-Thunderstorm,197
2013-7-23,89,80,71,74,72,69,94,91,87,29.87,29.82,29.74,10,8,4,14,5,20,0.00,4,Thunderstorm,238
2013-7-24,80,72,64,69,60,57,78,66,50,29.98,29.92,29.83,10,10,10,16,7,21,0.00,1,,352
2013-7-25,80,71,61,60,58,55,90,64,43,30.08,30.04,29.99,10,10,10,10,4,15,0.00,1,,358
2013-7-26,82,71,60,61,59,57,93,68,43,30.09,30.04,29.99,10,10,7,10,3,16,0.00,1,,240
2013-7-27,79,73,66,65,62,54,87,69,50,29.98,29.93,29.88,10,10,8,15,7,20,0.06,5,Rain,248
2013-7-28,76,65,54,54,50,44,86,62,38,30.08,30.03,29.96,10,10,10,15,4,23,0.00,0,,286
2013-7-29,82,69,56,59,56,53,93,83,72,30.19,30.14,30.09,10,10,10,13,3,20,0.00,1,,265
2013-7-30,82,73,63,66,61,58,87,71,54,30.21,30.17,30.11,10,10,5,8,2,13,0.14,3,Rain,152
2013-7-31,77,72,66,68,65,61,93,84,74,30.12,30.04,29.96,10,9,6,9,3,13,T,7,,160